sensor_id;sensor_type;location;lat;lon;timestamp;temperature;humidity
67133;HTU21D;54052;53.542;49.408;2022-09-29T00:01:54;12.17;79.27
67133;HTU21D;54052;53.542;49.408;2022-09-29T00:04:20;12.18;79.41
67133;HTU21D;54052;53.542;49.408;2022-09-29T00:06:47;12.17;79.78
67133;HTU21D;54052;53.542;49.408;2022-09-29T00:09:13;12.17;79.81
67133;HTU21D;54052;53.542;49.408;2022-09-29T00:11:39;12.19;79.83
67133;HTU21D;54052;53.542;49.408;2022-09-29T00:14:05;12.18;80.14
67133;HTU21D;54052;53.542;49.408;2022-09-29T00:16:32;12.15;80.11
67133;HTU21D;54052;53.542;49.408;2022-09-29T00:18:58;12.15;80.02
67133;HTU21D;54052;53.542;49.408;2022-09-29T00:21:24;12.14;80.07
67133;HTU21D;54052;53.542;49.408;2022-09-29T00:23:50;12.13;79.89
67133;HTU21D;54052;53.542;49.408;2022-09-29T00:26:22;12.13;79.63
67133;HTU21D;54052;53.542;49.408;2022-09-29T00:28:51;12.12;79.72
67133;HTU21D;54052;53.542;49.408;2022-09-29T00:31:19;12.10;79.75
67133;HTU21D;54052;53.542;49.408;2022-09-29T00:33:45;12.11;79.43
67133;HTU21D;54052;53.542;49.408;2022-09-29T00:36:14;12.12;79.78
67133;HTU21D;54052;53.542;49.408;2022-09-29T00:38:43;12.13;79.76
67133;HTU21D;54052;53.542;49.408;2022-09-29T00:41:24;12.08;79.90
67133;HTU21D;54052;53.542;49.408;2022-09-29T00:46:45;12.05;80.11
67133;HTU21D;54052;53.542;49.408;2022-09-29T00:49:26;12.00;80.31
67133;HTU21D;54052;53.542;49.408;2022-09-29T00:51:59;11.92;80.36
67133;HTU21D;54052;53.542;49.408;2022-09-29T00:54:30;11.90;80.21
67133;HTU21D;54052;53.542;49.408;2022-09-29T00:56:59;11.89;80.43
67133;HTU21D;54052;53.542;49.408;2022-09-29T00:59:34;11.89;80.46
67133;HTU21D;54052;53.542;49.408;2022-09-29T01:02:02;11.87;80.43
67133;HTU21D;54052;53.542;49.408;2022-09-29T01:04:29;11.90;80.32
67133;HTU21D;54052;53.542;49.408;2022-09-29T01:06:57;11.90;80.17
67133;HTU21D;54052;53.542;49.408;2022-09-29T01:09:31;11.87;80.06
67133;HTU21D;54052;53.542;49.408;2022-09-29T01:12:00;11.83;80.18
67133;HTU21D;54052;53.542;49.408;2022-09-29T01:14:28;11.82;80.22
67133;HTU21D;54052;53.542;49.408;2022-09-29T01:16:55;11.81;80.01
67133;HTU21D;54052;53.542;49.408;2022-09-29T01:31:13;11.87;80.29
67133;HTU21D;54052;53.542;49.408;2022-09-29T01:39:41;11.86;80.01
67133;HTU21D;54052;53.542;49.408;2022-09-29T01:42:18;11.88;79.43
67133;HTU21D;54052;53.542;49.408;2022-09-29T01:45:03;11.89;79.76
67133;HTU21D;54052;53.542;49.408;2022-09-29T01:47:37;11.87;79.89
67133;HTU21D;54052;53.542;49.408;2022-09-29T01:50:15;11.89;79.80
67133;HTU21D;54052;53.542;49.408;2022-09-29T01:52:50;11.90;79.86
67133;HTU21D;54052;53.542;49.408;2022-09-29T01:55:20;11.87;79.74
67133;HTU21D;54052;53.542;49.408;2022-09-29T01:57:55;11.86;80.04
67133;HTU21D;54052;53.542;49.408;2022-09-29T02:00:23;11.84;79.76
67133;HTU21D;54052;53.542;49.408;2022-09-29T02:02:57;11.89;79.79
67133;HTU21D;54052;53.542;49.408;2022-09-29T02:05:33;11.91;79.87
67133;HTU21D;54052;53.542;49.408;2022-09-29T02:08:07;11.91;79.72
67133;HTU21D;54052;53.542;49.408;2022-09-29T02:10:40;11.91;79.91
67133;HTU21D;54052;53.542;49.408;2022-09-29T02:13:11;11.90;80.02
67133;HTU21D;54052;53.542;49.408;2022-09-29T02:15:44;11.90;80.47
67133;HTU21D;54052;53.542;49.408;2022-09-29T02:18:16;11.87;81.28
67133;HTU21D;54052;53.542;49.408;2022-09-29T02:20:45;11.85;80.62
67133;HTU21D;54052;53.542;49.408;2022-09-29T02:23:12;11.87;80.58
67133;HTU21D;54052;53.542;49.408;2022-09-29T02:25:39;11.90;80.60
67133;HTU21D;54052;53.542;49.408;2022-09-29T02:28:06;11.92;80.52
67133;HTU21D;54052;53.542;49.408;2022-09-29T02:30:33;11.92;80.65
67133;HTU21D;54052;53.542;49.408;2022-09-29T02:33:00;11.96;80.45
67133;HTU21D;54052;53.542;49.408;2022-09-29T02:35:39;11.99;80.59
67133;HTU21D;54052;53.542;49.408;2022-09-29T02:38:17;12.01;80.07
67133;HTU21D;54052;53.542;49.408;2022-09-29T02:46:42;12.05;80.51
67133;HTU21D;54052;53.542;49.408;2022-09-29T02:51:39;12.07;80.33
67133;HTU21D;54052;53.542;49.408;2022-09-29T02:57:00;12.08;79.92
67133;HTU21D;54052;53.542;49.408;2022-09-29T02:59:41;12.10;80.11
67133;HTU21D;54052;53.542;49.408;2022-09-29T03:02:11;12.14;80.59
67133;HTU21D;54052;53.542;49.408;2022-09-29T03:04:38;12.14;80.61
67133;HTU21D;54052;53.542;49.408;2022-09-29T03:07:04;12.12;80.88
67133;HTU21D;54052;53.542;49.408;2022-09-29T03:09:30;12.13;80.98
67133;HTU21D;54052;53.542;49.408;2022-09-29T03:11:58;12.15;80.85
67133;HTU21D;54052;53.542;49.408;2022-09-29T03:14:25;12.16;80.83
67133;HTU21D;54052;53.542;49.408;2022-09-29T03:16:51;12.16;81.15
67133;HTU21D;54052;53.542;49.408;2022-09-29T03:19:17;12.18;81.35
67133;HTU21D;54052;53.542;49.408;2022-09-29T03:21:43;12.20;81.24
67133;HTU21D;54052;53.542;49.408;2022-09-29T03:24:09;12.20;81.97
67133;HTU21D;54052;53.542;49.408;2022-09-29T03:26:36;12.20;82.10
67133;HTU21D;54052;53.542;49.408;2022-09-29T03:29:02;12.21;82.10
67133;HTU21D;54052;53.542;49.408;2022-09-29T03:31:29;12.22;82.95
67133;HTU21D;54052;53.542;49.408;2022-09-29T03:33:55;12.22;83.43
67133;HTU21D;54052;53.542;49.408;2022-09-29T03:36:21;12.23;82.85
67133;HTU21D;54052;53.542;49.408;2022-09-29T03:38:47;12.29;82.67
67133;HTU21D;54052;53.542;49.408;2022-09-29T03:41:14;12.35;82.55
67133;HTU21D;54052;53.542;49.408;2022-09-29T03:43:40;12.43;82.54
67133;HTU21D;54052;53.542;49.408;2022-09-29T03:46:07;12.47;82.97
67133;HTU21D;54052;53.542;49.408;2022-09-29T03:48:33;12.51;82.74
67133;HTU21D;54052;53.542;49.408;2022-09-29T03:51:00;12.55;83.06
67133;HTU21D;54052;53.542;49.408;2022-09-29T03:53:26;12.56;83.19
67133;HTU21D;54052;53.542;49.408;2022-09-29T03:55:53;12.55;83.27
67133;HTU21D;54052;53.542;49.408;2022-09-29T03:58:19;12.58;83.01
67133;HTU21D;54052;53.542;49.408;2022-09-29T04:00:47;12.64;82.67
67133;HTU21D;54052;53.542;49.408;2022-09-29T04:03:14;12.69;82.62
67133;HTU21D;54052;53.542;49.408;2022-09-29T04:05:40;12.69;82.97
67133;HTU21D;54052;53.542;49.408;2022-09-29T04:08:07;12.70;83.11
67133;HTU21D;54052;53.542;49.408;2022-09-29T04:10:34;12.75;82.68
67133;HTU21D;54052;53.542;49.408;2022-09-29T04:13:01;12.79;82.64
67133;HTU21D;54052;53.542;49.408;2022-09-29T04:15:27;12.88;82.51
67133;HTU21D;54052;53.542;49.408;2022-09-29T04:17:53;12.91;82.92
67133;HTU21D;54052;53.542;49.408;2022-09-29T04:20:20;12.99;82.48
67133;HTU21D;54052;53.542;49.408;2022-09-29T04:22:46;13.06;82.28
67133;HTU21D;54052;53.542;49.408;2022-09-29T04:25:12;13.14;82.17
67133;HTU21D;54052;53.542;49.408;2022-09-29T04:27:39;13.18;82.44
67133;HTU21D;54052;53.542;49.408;2022-09-29T04:30:06;13.19;83.77
67133;HTU21D;54052;53.542;49.408;2022-09-29T04:32:32;13.22;82.49
67133;HTU21D;54052;53.542;49.408;2022-09-29T04:34:58;13.22;82.26
67133;HTU21D;54052;53.542;49.408;2022-09-29T04:37:25;13.18;82.57
67133;HTU21D;54052;53.542;49.408;2022-09-29T04:39:51;13.23;82.36
67133;HTU21D;54052;53.542;49.408;2022-09-29T04:42:19;13.23;82.70
67133;HTU21D;54052;53.542;49.408;2022-09-29T04:44:46;13.29;82.44
67133;HTU21D;54052;53.542;49.408;2022-09-29T04:47:13;13.29;82.40
67133;HTU21D;54052;53.542;49.408;2022-09-29T04:49:39;13.18;82.85
67133;HTU21D;54052;53.542;49.408;2022-09-29T04:52:06;13.17;82.74
67133;HTU21D;54052;53.542;49.408;2022-09-29T04:54:33;13.19;82.68
67133;HTU21D;54052;53.542;49.408;2022-09-29T04:57:00;13.20;83.08
67133;HTU21D;54052;53.542;49.408;2022-09-29T04:59:27;13.15;83.42
67133;HTU21D;54052;53.542;49.408;2022-09-29T05:01:54;13.17;83.17
67133;HTU21D;54052;53.542;49.408;2022-09-29T05:04:20;13.17;83.07
67133;HTU21D;54052;53.542;49.408;2022-09-29T05:06:47;13.12;83.55
67133;HTU21D;54052;53.542;49.408;2022-09-29T05:09:13;13.05;84.24
67133;HTU21D;54052;53.542;49.408;2022-09-29T05:11:40;13.06;84.51
67133;HTU21D;54052;53.542;49.408;2022-09-29T05:14:06;13.07;84.84
67133;HTU21D;54052;53.542;49.408;2022-09-29T05:16:32;13.11;84.60
67133;HTU21D;54052;53.542;49.408;2022-09-29T05:18:59;13.16;84.45
67133;HTU21D;54052;53.542;49.408;2022-09-29T05:21:25;13.23;84.57
67133;HTU21D;54052;53.542;49.408;2022-09-29T05:23:51;13.21;84.43
67133;HTU21D;54052;53.542;49.408;2022-09-29T05:26:18;13.23;84.18
67133;HTU21D;54052;53.542;49.408;2022-09-29T05:28:46;13.26;84.54
67133;HTU21D;54052;53.542;49.408;2022-09-29T05:31:13;13.24;85.39
67133;HTU21D;54052;53.542;49.408;2022-09-29T05:33:40;13.27;85.66
67133;HTU21D;54052;53.542;49.408;2022-09-29T05:36:08;13.25;85.64
67133;HTU21D;54052;53.542;49.408;2022-09-29T05:38:36;13.20;86.61
67133;HTU21D;54052;53.542;49.408;2022-09-29T05:41:07;13.19;86.93
67133;HTU21D;54052;53.542;49.408;2022-09-29T05:43:34;13.12;87.52
67133;HTU21D;54052;53.542;49.408;2022-09-29T05:46:02;13.20;87.22
67133;HTU21D;54052;53.542;49.408;2022-09-29T05:48:28;13.24;87.25
67133;HTU21D;54052;53.542;49.408;2022-09-29T05:50:58;13.30;86.74
67133;HTU21D;54052;53.542;49.408;2022-09-29T05:53:25;13.33;86.76
67133;HTU21D;54052;53.542;49.408;2022-09-29T05:55:52;13.36;86.96
67133;HTU21D;54052;53.542;49.408;2022-09-29T05:58:18;13.38;86.61
67133;HTU21D;54052;53.542;49.408;2022-09-29T06:00:44;13.34;87.19
67133;HTU21D;54052;53.542;49.408;2022-09-29T06:03:11;13.26;87.54
67133;HTU21D;54052;53.542;49.408;2022-09-29T06:05:38;13.29;87.44
67133;HTU21D;54052;53.542;49.408;2022-09-29T06:08:05;13.32;87.59
67133;HTU21D;54052;53.542;49.408;2022-09-29T06:10:32;13.33;87.60
67133;HTU21D;54052;53.542;49.408;2022-09-29T06:13:00;13.31;87.37
67133;HTU21D;54052;53.542;49.408;2022-09-29T06:15:28;13.27;87.61
67133;HTU21D;54052;53.542;49.408;2022-09-29T06:17:55;13.24;87.94
67133;HTU21D;54052;53.542;49.408;2022-09-29T06:20:22;13.21;87.82
67133;HTU21D;54052;53.542;49.408;2022-09-29T06:22:52;13.18;88.11
67133;HTU21D;54052;53.542;49.408;2022-09-29T06:25:18;13.12;88.64
67133;HTU21D;54052;53.542;49.408;2022-09-29T06:27:44;13.17;88.71
67133;HTU21D;54052;53.542;49.408;2022-09-29T06:30:11;13.18;89.32
67133;HTU21D;54052;53.542;49.408;2022-09-29T06:32:40;13.22;89.25
67133;HTU21D;54052;53.542;49.408;2022-09-29T06:35:07;13.25;89.59
67133;HTU21D;54052;53.542;49.408;2022-09-29T06:37:53;13.38;88.96
67133;HTU21D;54052;53.542;49.408;2022-09-29T06:40:21;13.48;88.60
67133;HTU21D;54052;53.542;49.408;2022-09-29T06:42:48;13.63;87.90
67133;HTU21D;54052;53.542;49.408;2022-09-29T06:45:15;13.61;87.69
67133;HTU21D;54052;53.542;49.408;2022-09-29T06:47:41;13.59;88.35
67133;HTU21D;54052;53.542;49.408;2022-09-29T06:50:07;13.56;88.93
67133;HTU21D;54052;53.542;49.408;2022-09-29T06:52:34;13.55;89.21
67133;HTU21D;54052;53.542;49.408;2022-09-29T06:55:01;13.54;89.03
67133;HTU21D;54052;53.542;49.408;2022-09-29T06:57:27;13.58;88.81
67133;HTU21D;54052;53.542;49.408;2022-09-29T06:59:53;13.59;89.23
67133;HTU21D;54052;53.542;49.408;2022-09-29T07:02:19;13.55;88.80
67133;HTU21D;54052;53.542;49.408;2022-09-29T07:04:46;13.48;89.82
67133;HTU21D;54052;53.542;49.408;2022-09-29T07:07:14;13.44;89.31
67133;HTU21D;54052;53.542;49.408;2022-09-29T07:09:41;13.45;89.68
67133;HTU21D;54052;53.542;49.408;2022-09-29T07:12:07;13.38;90.60
67133;HTU21D;54052;53.542;49.408;2022-09-29T07:14:36;13.38;90.43
67133;HTU21D;54052;53.542;49.408;2022-09-29T07:17:02;13.38;90.38
67133;HTU21D;54052;53.542;49.408;2022-09-29T07:19:29;13.46;89.82
67133;HTU21D;54052;53.542;49.408;2022-09-29T07:21:57;13.45;89.53
67133;HTU21D;54052;53.542;49.408;2022-09-29T07:24:23;13.49;89.82
67133;HTU21D;54052;53.542;49.408;2022-09-29T07:26:50;13.51;89.92
67133;HTU21D;54052;53.542;49.408;2022-09-29T07:29:16;13.56;89.70
67133;HTU21D;54052;53.542;49.408;2022-09-29T07:31:43;13.63;89.67
67133;HTU21D;54052;53.542;49.408;2022-09-29T07:34:12;13.66;89.62
67133;HTU21D;54052;53.542;49.408;2022-09-29T07:36:39;13.74;89.41
67133;HTU21D;54052;53.542;49.408;2022-09-29T07:39:05;13.77;89.48
67133;HTU21D;54052;53.542;49.408;2022-09-29T07:41:31;13.78;89.98
67133;HTU21D;54052;53.542;49.408;2022-09-29T07:43:57;13.84;89.21
67133;HTU21D;54052;53.542;49.408;2022-09-29T07:46:24;13.86;89.03
67133;HTU21D;54052;53.542;49.408;2022-09-29T07:48:50;13.88;88.97
67133;HTU21D;54052;53.542;49.408;2022-09-29T07:51:18;13.84;89.34
67133;HTU21D;54052;53.542;49.408;2022-09-29T07:53:45;13.86;88.73
67133;HTU21D;54052;53.542;49.408;2022-09-29T07:56:14;13.84;88.81
67133;HTU21D;54052;53.542;49.408;2022-09-29T07:58:42;13.86;88.89
67133;HTU21D;54052;53.542;49.408;2022-09-29T08:01:10;13.91;88.56
67133;HTU21D;54052;53.542;49.408;2022-09-29T08:03:52;13.91;88.47
67133;HTU21D;54052;53.542;49.408;2022-09-29T08:06:21;13.94;88.06
67133;HTU21D;54052;53.542;49.408;2022-09-29T08:08:47;13.90;88.64
67133;HTU21D;54052;53.542;49.408;2022-09-29T08:11:16;13.92;88.99
67133;HTU21D;54052;53.542;49.408;2022-09-29T08:13:43;13.95;88.09
67133;HTU21D;54052;53.542;49.408;2022-09-29T08:16:12;13.96;88.35
67133;HTU21D;54052;53.542;49.408;2022-09-29T08:18:40;13.97;88.57
67133;HTU21D;54052;53.542;49.408;2022-09-29T08:21:07;14.00;88.22
67133;HTU21D;54052;53.542;49.408;2022-09-29T08:23:38;14.03;87.96
67133;HTU21D;54052;53.542;49.408;2022-09-29T08:26:07;14.01;87.68
67133;HTU21D;54052;53.542;49.408;2022-09-29T08:28:35;14.01;87.71
67133;HTU21D;54052;53.542;49.408;2022-09-29T08:31:03;14.05;88.10
67133;HTU21D;54052;53.542;49.408;2022-09-29T08:33:30;14.04;87.32
67133;HTU21D;54052;53.542;49.408;2022-09-29T08:35:57;14.06;87.59
67133;HTU21D;54052;53.542;49.408;2022-09-29T08:38:24;14.07;87.56
67133;HTU21D;54052;53.542;49.408;2022-09-29T08:40:51;14.06;87.21
67133;HTU21D;54052;53.542;49.408;2022-09-29T08:43:24;14.06;87.49
67133;HTU21D;54052;53.542;49.408;2022-09-29T08:46:00;14.11;86.96
67133;HTU21D;54052;53.542;49.408;2022-09-29T08:48:31;14.07;87.41
67133;HTU21D;54052;53.542;49.408;2022-09-29T08:51:03;14.10;87.22
67133;HTU21D;54052;53.542;49.408;2022-09-29T08:53:32;14.00;88.14
67133;HTU21D;54052;53.542;49.408;2022-09-29T08:56:12;14.00;87.78
67133;HTU21D;54052;53.542;49.408;2022-09-29T08:58:40;14.04;88.54
67133;HTU21D;54052;53.542;49.408;2022-09-29T09:01:15;14.04;87.55
67133;HTU21D;54052;53.542;49.408;2022-09-29T09:10:12;14.10;87.73
67133;HTU21D;54052;53.542;49.408;2022-09-29T09:15:19;14.18;87.32
67133;HTU21D;54052;53.542;49.408;2022-09-29T09:18:21;14.21;86.58
67133;HTU21D;54052;53.542;49.408;2022-09-29T09:23:22;14.29;86.79
67133;HTU21D;54052;53.542;49.408;2022-09-29T09:26:03;14.30;86.91
67133;HTU21D;54052;53.542;49.408;2022-09-29T09:28:34;14.36;86.96
67133;HTU21D;54052;53.542;49.408;2022-09-29T09:31:10;14.41;86.41
67133;HTU21D;54052;53.542;49.408;2022-09-29T09:34:01;14.47;86.81
67133;HTU21D;54052;53.542;49.408;2022-09-29T09:36:34;14.58;86.16
67133;HTU21D;54052;53.542;49.408;2022-09-29T09:39:05;14.60;86.39
67133;HTU21D;54052;53.542;49.408;2022-09-29T09:41:36;14.71;85.96
67133;HTU21D;54052;53.542;49.408;2022-09-29T09:44:24;14.84;85.24
67133;HTU21D;54052;53.542;49.408;2022-09-29T09:49:41;14.92;84.55
67133;HTU21D;54052;53.542;49.408;2022-09-29T09:52:10;14.88;85.22
67133;HTU21D;54052;53.542;49.408;2022-09-29T09:54:41;14.87;84.33
67133;HTU21D;54052;53.542;49.408;2022-09-29T10:00:15;14.74;84.86
67133;HTU21D;54052;53.542;49.408;2022-09-29T10:02:49;14.65;85.20
67133;HTU21D;54052;53.542;49.408;2022-09-29T10:05:19;14.52;86.02
67133;HTU21D;54052;53.542;49.408;2022-09-29T10:07:46;14.51;86.86
67133;HTU21D;54052;53.542;49.408;2022-09-29T10:10:24;14.48;87.34
67133;HTU21D;54052;53.542;49.408;2022-09-29T10:13:04;14.47;86.83
67133;HTU21D;54052;53.542;49.408;2022-09-29T10:15:36;14.47;86.38
67133;HTU21D;54052;53.542;49.408;2022-09-29T10:20:37;14.37;86.63
67133;HTU21D;54052;53.542;49.408;2022-09-29T10:26:09;14.39;87.00
67133;HTU21D;54052;53.542;49.408;2022-09-29T10:29:02;14.34;87.93
67133;HTU21D;54052;53.542;49.408;2022-09-29T10:31:31;14.23;88.25
67133;HTU21D;54052;53.542;49.408;2022-09-29T10:34:21;14.25;87.77
67133;HTU21D;54052;53.542;49.408;2022-09-29T10:36:52;14.32;88.47
67133;HTU21D;54052;53.542;49.408;2022-09-29T10:39:40;14.34;87.48
67133;HTU21D;54052;53.542;49.408;2022-09-29T10:42:26;14.37;87.11
67133;HTU21D;54052;53.542;49.408;2022-09-29T10:47:51;14.33;87.35
67133;HTU21D;54052;53.542;49.408;2022-09-29T10:50:37;14.24;88.00
67133;HTU21D;54052;53.542;49.408;2022-09-29T10:53:37;14.22;88.51
67133;HTU21D;54052;53.542;49.408;2022-09-29T10:56:19;14.23;88.02
67133;HTU21D;54052;53.542;49.408;2022-09-29T10:58:55;14.21;88.34
67133;HTU21D;54052;53.542;49.408;2022-09-29T11:01:25;14.22;87.80
67133;HTU21D;54052;53.542;49.408;2022-09-29T11:03:56;14.24;87.95
67133;HTU21D;54052;53.542;49.408;2022-09-29T11:09:05;14.32;87.73
67133;HTU21D;54052;53.542;49.408;2022-09-29T11:11:37;14.32;87.68
67133;HTU21D;54052;53.542;49.408;2022-09-29T11:14:04;14.39;87.53
67133;HTU21D;54052;53.542;49.408;2022-09-29T11:19:07;14.38;87.62
67133;HTU21D;54052;53.542;49.408;2022-09-29T11:22:03;14.44;87.34
67133;HTU21D;54052;53.542;49.408;2022-09-29T11:27:41;14.56;87.12
67133;HTU21D;54052;53.542;49.408;2022-09-29T11:30:22;14.59;87.09
67133;HTU21D;54052;53.542;49.408;2022-09-29T11:37:54;14.74;86.68
67133;HTU21D;54052;53.542;49.408;2022-09-29T11:48:40;14.82;86.90
67133;HTU21D;54052;53.542;49.408;2022-09-29T11:53:55;14.70;87.43
67133;HTU21D;54052;53.542;49.408;2022-09-29T12:09:57;14.56;87.55
67133;HTU21D;54052;53.542;49.408;2022-09-29T12:15:29;14.52;88.25
67133;HTU21D;54052;53.542;49.408;2022-09-29T12:18:02;14.54;88.70
67133;HTU21D;54052;53.542;49.408;2022-09-29T12:20:33;14.52;88.78
67133;HTU21D;54052;53.542;49.408;2022-09-29T12:23:02;14.54;88.68
67133;HTU21D;54052;53.542;49.408;2022-09-29T12:25:33;14.52;88.90
67133;HTU21D;54052;53.542;49.408;2022-09-29T12:28:13;14.50;89.20
67133;HTU21D;54052;53.542;49.408;2022-09-29T12:30:49;14.47;89.15
67133;HTU21D;54052;53.542;49.408;2022-09-29T12:39:00;14.44;89.12
67133;HTU21D;54052;53.542;49.408;2022-09-29T12:41:31;14.40;89.18
67133;HTU21D;54052;53.542;49.408;2022-09-29T12:44:09;14.39;89.54
67133;HTU21D;54052;53.542;49.408;2022-09-29T12:46:55;14.38;89.63
67133;HTU21D;54052;53.542;49.408;2022-09-29T12:49:34;14.35;89.42
67133;HTU21D;54052;53.542;49.408;2022-09-29T12:52:11;14.32;89.54
67133;HTU21D;54052;53.542;49.408;2022-09-29T12:54:51;14.25;89.83
67133;HTU21D;54052;53.542;49.408;2022-09-29T12:57:25;14.21;90.37
67133;HTU21D;54052;53.542;49.408;2022-09-29T12:59:57;14.23;90.70
67133;HTU21D;54052;53.542;49.408;2022-09-29T13:05:35;14.22;90.98
67133;HTU21D;54052;53.542;49.408;2022-09-29T13:11:01;14.22;91.15
67133;HTU21D;54052;53.542;49.408;2022-09-29T13:19:20;14.21;91.27
67133;HTU21D;54052;53.542;49.408;2022-09-29T13:22:19;14.20;91.37
67133;HTU21D;54052;53.542;49.408;2022-09-29T13:27:41;14.11;92.34
67133;HTU21D;54052;53.542;49.408;2022-09-29T13:30:18;14.14;92.30
67133;HTU21D;54052;53.542;49.408;2022-09-29T13:32:47;14.17;92.14
67133;HTU21D;54052;53.542;49.408;2022-09-29T13:35:20;14.14;92.20
67133;HTU21D;54052;53.542;49.408;2022-09-29T13:37:55;14.15;91.98
67133;HTU21D;54052;53.542;49.408;2022-09-29T13:40:27;14.15;91.85
67133;HTU21D;54052;53.542;49.408;2022-09-29T13:42:58;14.17;91.73
67133;HTU21D;54052;53.542;49.408;2022-09-29T13:48:01;14.14;91.83
67133;HTU21D;54052;53.542;49.408;2022-09-29T13:50:46;14.10;91.79
67133;HTU21D;54052;53.542;49.408;2022-09-29T13:58:35;14.04;92.37
67133;HTU21D;54052;53.542;49.408;2022-09-29T14:01:08;14.01;92.49
67133;HTU21D;54052;53.542;49.408;2022-09-29T14:03:40;14.00;92.53
67133;HTU21D;54052;53.542;49.408;2022-09-29T14:06:18;13.97;92.70
67133;HTU21D;54052;53.542;49.408;2022-09-29T14:11:16;13.95;93.08
67133;HTU21D;54052;53.542;49.408;2022-09-29T14:13:48;13.94;93.13
67133;HTU21D;54052;53.542;49.408;2022-09-29T14:21:55;13.94;93.34
67133;HTU21D;54052;53.542;49.408;2022-09-29T14:29:59;13.85;93.56
67133;HTU21D;54052;53.542;49.408;2022-09-29T14:32:47;13.82;93.86
67133;HTU21D;54052;53.542;49.408;2022-09-29T14:35:18;13.78;93.94
67133;HTU21D;54052;53.542;49.408;2022-09-29T14:37:50;13.76;94.21
67133;HTU21D;54052;53.542;49.408;2022-09-29T14:40:18;13.82;94.20
67133;HTU21D;54052;53.542;49.408;2022-09-29T14:58:02;13.86;95.33
67133;HTU21D;54052;53.542;49.408;2022-09-29T15:00:56;13.90;93.41
67133;HTU21D;54052;53.542;49.408;2022-09-29T15:03:52;13.89;93.49
67133;HTU21D;54052;53.542;49.408;2022-09-29T15:06:21;13.91;92.99
67133;HTU21D;54052;53.542;49.408;2022-09-29T15:09:00;13.93;93.12
67133;HTU21D;54052;53.542;49.408;2022-09-29T15:11:30;13.97;93.08
67133;HTU21D;54052;53.542;49.408;2022-09-29T15:13:58;13.93;92.72
67133;HTU21D;54052;53.542;49.408;2022-09-29T15:16:41;13.93;92.78
67133;HTU21D;54052;53.542;49.408;2022-09-29T15:25:09;13.92;92.71
67133;HTU21D;54052;53.542;49.408;2022-09-29T15:27:45;13.93;92.80
67133;HTU21D;54052;53.542;49.408;2022-09-29T15:30:14;13.92;92.30
67133;HTU21D;54052;53.542;49.408;2022-09-29T15:32:45;13.93;92.21
67133;HTU21D;54052;53.542;49.408;2022-09-29T15:35:16;14.01;93.87
67133;HTU21D;54052;53.542;49.408;2022-09-29T15:40:52;14.15;91.31
67133;HTU21D;54052;53.542;49.408;2022-09-29T15:43:21;14.07;92.42
67133;HTU21D;54052;53.542;49.408;2022-09-29T15:45:56;14.00;91.29
67133;HTU21D;54052;53.542;49.408;2022-09-29T15:48:27;13.96;91.37
67133;HTU21D;54052;53.542;49.408;2022-09-29T15:50:54;13.94;91.37
67133;HTU21D;54052;53.542;49.408;2022-09-29T15:53:22;13.93;91.61
67133;HTU21D;54052;53.542;49.408;2022-09-29T15:55:53;13.86;91.90
67133;HTU21D;54052;53.542;49.408;2022-09-29T16:01:04;13.76;92.63
67133;HTU21D;54052;53.542;49.408;2022-09-29T16:03:44;13.78;92.37
67133;HTU21D;54052;53.542;49.408;2022-09-29T16:08:54;13.76;92.48
67133;HTU21D;54052;53.542;49.408;2022-09-29T16:11:23;13.76;92.37
67133;HTU21D;54052;53.542;49.408;2022-09-29T16:14:24;13.73;92.58
67133;HTU21D;54052;53.542;49.408;2022-09-29T16:16:54;13.73;92.27
67133;HTU21D;54052;53.542;49.408;2022-09-29T16:19:25;13.73;92.37
67133;HTU21D;54052;53.542;49.408;2022-09-29T16:21:55;13.69;92.33
67133;HTU21D;54052;53.542;49.408;2022-09-29T16:24:27;13.69;92.34
67133;HTU21D;54052;53.542;49.408;2022-09-29T16:26:56;13.71;92.38
67133;HTU21D;54052;53.542;49.408;2022-09-29T16:29:31;13.69;92.41
67133;HTU21D;54052;53.542;49.408;2022-09-29T16:32:44;13.65;92.69
67133;HTU21D;54052;53.542;49.408;2022-09-29T16:34:46;13.66;92.70
67133;HTU21D;54052;53.542;49.408;2022-09-29T16:37:16;13.66;92.92
67133;HTU21D;54052;53.542;49.408;2022-09-29T16:39:46;13.67;92.63
67133;HTU21D;54052;53.542;49.408;2022-09-29T16:42:24;13.68;92.56
67133;HTU21D;54052;53.542;49.408;2022-09-29T16:44:53;13.71;92.48
67133;HTU21D;54052;53.542;49.408;2022-09-29T16:47:26;13.73;92.12
67133;HTU21D;54052;53.542;49.408;2022-09-29T16:49:54;13.69;92.48
67133;HTU21D;54052;53.542;49.408;2022-09-29T16:52:31;13.67;92.61
67133;HTU21D;54052;53.542;49.408;2022-09-29T17:00:24;13.68;92.42
67133;HTU21D;54052;53.542;49.408;2022-09-29T17:02:51;13.61;92.88
67133;HTU21D;54052;53.542;49.408;2022-09-29T17:05:18;13.52;92.74
67133;HTU21D;54052;53.542;49.408;2022-09-29T17:07:44;13.40;93.56
67133;HTU21D;54052;53.542;49.408;2022-09-29T17:10:17;13.34;93.72
67133;HTU21D;54052;53.542;49.408;2022-09-29T17:12:44;13.31;93.78
67133;HTU21D;54052;53.542;49.408;2022-09-29T17:15:14;13.34;93.57
67133;HTU21D;54052;53.542;49.408;2022-09-29T17:17:51;13.36;93.32
67133;HTU21D;54052;53.542;49.408;2022-09-29T17:20:20;13.36;93.07
67133;HTU21D;54052;53.542;49.408;2022-09-29T17:22:54;13.35;92.82
67133;HTU21D;54052;53.542;49.408;2022-09-29T17:25:21;13.37;92.72
67133;HTU21D;54052;53.542;49.408;2022-09-29T17:27:48;13.37;92.55
67133;HTU21D;54052;53.542;49.408;2022-09-29T17:30:32;13.36;93.07
67133;HTU21D;54052;53.542;49.408;2022-09-29T17:33:02;13.37;92.75
67133;HTU21D;54052;53.542;49.408;2022-09-29T17:35:52;13.35;92.84
67133;HTU21D;54052;53.542;49.408;2022-09-29T17:38:18;13.32;92.82
67133;HTU21D;54052;53.542;49.408;2022-09-29T17:40:47;13.25;93.36
67133;HTU21D;54052;53.542;49.408;2022-09-29T17:43:16;13.19;94.08
67133;HTU21D;54052;53.542;49.408;2022-09-29T17:45:45;13.21;94.04
67133;HTU21D;54052;53.542;49.408;2022-09-29T17:48:12;13.22;94.04
67133;HTU21D;54052;53.542;49.408;2022-09-29T17:53:09;13.15;94.25
67133;HTU21D;54052;53.542;49.408;2022-09-29T17:55:39;13.14;94.26
67133;HTU21D;54052;53.542;49.408;2022-09-29T17:58:06;13.12;94.65
67133;HTU21D;54052;53.542;49.408;2022-09-29T18:00:36;13.17;94.17
67133;HTU21D;54052;53.542;49.408;2022-09-29T18:03:12;13.20;93.85
67133;HTU21D;54052;53.542;49.408;2022-09-29T18:05:39;13.23;93.96
67133;HTU21D;54052;53.542;49.408;2022-09-29T18:08:13;13.15;94.00
67133;HTU21D;54052;53.542;49.408;2022-09-29T18:11:12;13.09;94.64
67133;HTU21D;54052;53.542;49.408;2022-09-29T18:13:38;13.06;94.62
67133;HTU21D;54052;53.542;49.408;2022-09-29T18:16:05;13.09;94.19
67133;HTU21D;54052;53.542;49.408;2022-09-29T18:18:31;13.11;93.96
67133;HTU21D;54052;53.542;49.408;2022-09-29T18:21:02;13.12;94.04
67133;HTU21D;54052;53.542;49.408;2022-09-29T18:23:29;13.14;93.91